Nearby METAR Reports

 

KARR - Chicago/Aurora, Illinois, USA
Distance from station: S 8mi, 13km
Updated: Mon, Aug-20-2018 6:52am CDT
Clear
Clear
 Wind from ESE
Wind: ESE 9 mph , 15 km/h
Temperature: 72°F , 22°C
Dew Point: 64°F , 18°C
Humidity: 78%
Barometer: 1012.5 hPa
Clouds: Clear
Visibility: 7 miles , 11 km
2018/08/20 11:52 KARR 201152Z 12008KT 7SM CLR 22/18 A2990 RMK AO2 SLP120 T02170183 10233 20211 55004
KDKB - De Kalb, Illinois, USA
Distance from station: WNW 12mi, 19km
Updated: Mon, Aug-20-2018 7:15am CDT
Clear
Clear
 Wind from E
Wind: E 7 mph , 11 km/h
Temperature: 68°F , 20°C
Dew Point: 66°F , 19°C
Humidity: 94%
Barometer: 1013.2 hPa
Clouds: Clear
Visibility: 10 miles , 16 km
2018/08/20 12:15 KDKB 201215Z AUTO 09006KT 10SM CLR 20/19 A2992 RMK AO2 T02000188
 
KDPA - Chicago/Dupage, Illinois, USA
Distance from station: E 12mi, 19km
Updated: Mon, Aug-20-2018 6:52am CDT
Haze, Clear
Haze, Clear
 Wind from ESE
Wind: ESE 5 mph , 7 km/h
Temperature: 70°F , 21°C
Dew Point: 64°F , 18°C
Humidity: 83%
Barometer: 1012.5 hPa
Summary: Haze
Clouds: Clear
Visibility: 6 miles , 10 km
2018/08/20 11:52 KDPA 201152Z 11004KT 6SM HZ CLR 21/18 A2990 RMK AO2 SLP121 T02110183 10233 20206 55005 $
KLOT - Romeoville/Chi, Illinois, USA
Distance from station: SE 28mi, 45km
Updated: Mon, Aug-20-2018 7:15am CDT
Clear
Clear
 Wind from ESE
Wind: ESE 9 mph , 15 km/h
Temperature: 70°F , 21°C
Dew Point: 64°F , 18°C
Humidity: 83%
Barometer: 1013.2 hPa
Clouds: Clear
Visibility: 10 miles , 16 km
2018/08/20 12:15 KLOT 201215Z AUTO 12008KT 10SM CLR 21/18 A2992 RMK AO2 T02100180
 
KORD - Chicago O'hare, Illinois, USA
Distance from station: ENE 29mi, 46km
Updated: Mon, Aug-20-2018 6:51am CDT
Mostly cloudy
Mostly cloudy
 Wind from ESE
Wind: ESE 10 mph , 17 km/h
Temperature: 73°F , 23°C
Dew Point: 63°F , 17°C
Humidity: 69%
Barometer: 1012.9 hPa
Clouds: Mostly cloudy
Visibility: 10 miles , 16 km
Cloud details: Mostly cloudy 20000 ft
Mostly cloudy 25000 ft
2018/08/20 11:51 KORD 201151Z 11009KT 10SM BKN200 BKN250 23/17 A2991 RMK AO2 SLP124 T02280172 10239 20217 56007
KJOT - Joliet, Illinois, USA
Distance from station: SSE 30mi, 48km
Updated: Mon, Aug-20-2018 7:15am CDT
Clear
Clear
 Wind from ESE
Wind: ESE 9 mph , 15 km/h, Gust: 17 mph , 28 km/h
Temperature: 72°F , 22°C
Dew Point: 66°F , 19°C
Humidity: 83%
Barometer: 1012.9 hPa
Clouds: Clear
Visibility: 10 miles , 16 km
2018/08/20 12:15 KJOT 201215Z AUTO 12008G15KT 10SM CLR 22/19 A2991 RMK AO2 T02160190
 
KRPJ - Rochelle/Koritz, Illinois, USA
Distance from station: W 31mi, 50km
Updated: Mon, Aug-20-2018 7:15am CDT
Clear
Clear
 Wind from E
Wind: E 7 mph , 11 km/h
Temperature: 68°F , 20°C
Dew Point: 66°F , 19°C
Humidity: 94%
Barometer: 1012.2 hPa
Clouds: Clear
Visibility: 10 miles , 16 km
2018/08/20 12:15 KRPJ 201215Z AUTO 10006KT 10SM CLR 20/19 A2989 RMK AO2 T02010186
KC09 - Morris-Washburn, Illinois, USA
Distance from station: S 31mi, 51km
Updated: Mon, Aug-20-2018 7:15am CDT
Clear
Clear
 Wind from ESE
Wind: ESE 8 mph , 13 km/h
Temperature: 70°F , 21°C
Dew Point: 66°F , 19°C
Humidity: 88%
Barometer: 1012.2 hPa
Clouds: Clear
Visibility: 10 miles , 16 km
2018/08/20 12:15 KC09 201215Z AUTO 11007KT 10SM CLR 21/19 A2989 RMK AO2 T02050189
 
KPWK - Palwaukee, Illinois, USA
Distance from station: ENE 34mi, 54km
Updated: Mon, Aug-20-2018 6:52am CDT
Clear
Clear
 Wind from E
Wind: E 6 mph , 9 km/h
Temperature: 73°F , 23°C
Dew Point: 64°F , 18°C
Humidity: 74%
Barometer: 1013.5 hPa
Clouds: Clear
Visibility: 10 miles , 16 km
2018/08/20 11:52 KPWK 201152Z 10005KT 10SM CLR 23/18 A2993 RMK AO2 SLP131 T02280178 10244 20222 56005 $
KMDW - Chicago, Illinois, USA
Distance from station: E 38mi, 62km
Updated: Mon, Aug-20-2018 6:53am CDT
Mostly cloudy
Mostly cloudy
 Wind from ESE
Wind: ESE 9 mph , 15 km/h
Temperature: 72°F , 22°C
Dew Point: 64°F , 18°C
Humidity: 78%
Barometer: 1012.9 hPa
Clouds: Mostly cloudy
Visibility: 10 miles , 16 km
Cloud details: Mostly cloudy 25000 ft
2018/08/20 11:53 KMDW 201153Z 12008KT 10SM BKN250 22/18 A2991 RMK AO2 SLP120 T02220178 10244 20217 55004
 
KRFD - Rockford, Illinois, USA
Distance from station: NW 39mi, 62km
Updated: Mon, Aug-20-2018 6:54am CDT
Overcast
Overcast
 Wind from ESE
Wind: ESE 7 mph , 11 km/h
Temperature: 70°F , 21°C
Dew Point: 64°F , 18°C
Humidity: 83%
Barometer: 1012.5 hPa
Clouds: Overcast
Visibility: 8 miles , 13 km
Cloud details: Mostly cloudy 19000 ft
Overcast 25000 ft
2018/08/20 11:54 KRFD 201154Z 11006KT 8SM BKN190 OVC250 21/18 A2990 RMK AO2 SLP122 T02060178 10217 20206 55003